Time;durP1;ratioP1;P1;durP2;ratioP2;P2;SDS_P1;SDS_P2;PMS_P1;PMS_P2;Temp;Humidity;BMP_temperature;BMP_pressure;BME280_temperature;BME280_humidity;BME280_pressure;Samples;Min_cycle;Max_cycle;Signal;HPM_P1;HPM_P2
2021/12/10 00:02:11;;;;;;;0.60;0.47;;;7.80;99.90;;;;;;5036662;28;20092;-61
2021/12/10 00:04:39;;;;;;;0.93;0.50;;;7.80;99.90;;;;;;5047805;28;20122;-61
2021/12/10 00:07:20;;;;;;;0.45;0.38;;;8.00;99.90;;;;;;5042386;28;20044;-61
2021/12/10 00:09:58;;;;;;;1.67;0.50;;;7.90;99.90;;;;;;5044550;28;20508;-62
2021/12/10 00:12:29;;;;;;;6.15;0.68;;;7.90;99.90;;;;;;5038229;28;20428;-62
2021/12/10 00:14:56;;;;;;;2.05;0.98;;;7.90;99.90;;;;;;5044243;28;20049;-61
2021/12/10 00:17:23;;;;;;;0.45;0.45;;;8.00;99.90;;;;;;5041419;28;20083;-61
2021/12/10 00:19:55;;;;;;;0.30;0.30;;;8.00;99.90;;;;;;5059308;28;20045;-62
2021/12/10 00:22:26;;;;;;;0.40;0.38;;;8.00;99.90;;;;;;5036551;28;20048;-62
2021/12/10 00:24:53;;;;;;;1.30;0.50;;;8.00;99.90;;;;;;5014469;28;20501;-62
2021/12/10 00:27:27;;;;;;;1.77;0.60;;;7.90;99.90;;;;;;5035514;28;20151;-62
2021/12/10 00:30:05;;;;;;;1.17;0.80;;;8.00;99.90;;;;;;5045062;28;20142;-63
2021/12/10 00:32:36;;;;;;;3.42;0.40;;;8.00;99.90;;;;;;5034267;28;20099;-61
2021/12/10 00:35:10;;;;;;;0.90;0.63;;;8.00;99.90;;;;;;5056080;28;20080;-61
2021/12/10 00:37:37;;;;;;;0.47;0.47;;;8.00;99.90;;;;;;5043764;28;20045;-61
2021/12/10 00:40:05;;;;;;;4.28;1.05;;;8.10;99.90;;;;;;5040373;28;20579;-61
2021/12/10 00:42:33;;;;;;;2.50;0.73;;;8.10;99.90;;;;;;5041943;28;20409;-61
2021/12/10 00:45:00;;;;;;;1.60;0.98;;;8.00;99.90;;;;;;5046578;28;20060;-61
2021/12/10 00:47:27;;;;;;;1.50;0.77;;;8.10;99.90;;;;;;5039140;28;20045;-61
2021/12/10 00:49:54;;;;;;;1.45;1.10;;;8.10;99.90;;;;;;5053269;28;20068;-61
2021/12/10 00:52:21;;;;;;;1.02;0.82;;;8.00;99.90;;;;;;5038122;28;20076;-61
2021/12/10 00:54:48;;;;;;;3.55;1.30;;;8.10;99.90;;;;;;5051310;28;20037;-61
2021/12/10 00:57:15;;;;;;;1.13;1.02;;;8.00;99.90;;;;;;5020500;28;20099;-61
2021/12/10 00:59:43;;;;;;;2.20;1.52;;;8.00;99.90;;;;;;5043750;28;20050;-61
2021/12/10 01:02:11;;;;;;;1.50;1.30;;;8.10;99.90;;;;;;5053376;28;20072;-60
2021/12/10 01:04:40;;;;;;;2.50;1.90;;;8.00;99.90;;;;;;5045489;28;20053;-61
2021/12/10 01:07:12;;;;;;;2.53;1.67;;;8.00;99.90;;;;;;5054690;28;20049;-61
2021/12/10 01:09:41;;;;;;;2.38;1.77;;;8.00;99.90;;;;;;5049511;28;20535;-61
2021/12/10 01:12:14;;;;;;;3.17;2.08;;;8.00;99.90;;;;;;5045658;28;20108;-61
2021/12/10 01:26:09;;;;;;;3.30;2.67;;;7.90;99.90;;;;;;5040204;28;20103;-61
2021/12/10 01:28:39;;;;;;;3.58;2.90;;;7.90;99.90;;;;;;5040664;28;20080;-61
2021/12/10 01:31:07;;;;;;;3.88;2.75;;;7.90;99.90;;;;;;5050332;28;20445;-61
2021/12/10 01:33:34;;;;;;;5.68;2.85;;;7.90;99.90;;;;;;5038824;28;20075;-61
2021/12/10 01:36:06;;;;;;;7.75;2.90;;;7.80;99.90;;;;;;5047250;28;20565;-62
2021/12/10 01:38:34;;;;;;;3.15;2.17;;;7.80;99.90;;;;;;5041440;28;20041;-61
2021/12/10 01:41:02;;;;;;;2.83;2.05;;;7.80;99.90;;;;;;5044690;28;20053;-65
2021/12/10 01:43:34;;;;;;;3.45;2.70;;;7.80;99.90;;;;;;5039098;28;20183;-61
2021/12/10 01:46:07;;;;;;;6.82;3.17;;;7.80;99.90;;;;;;5051128;28;20124;-62
2021/12/10 01:48:37;;;;;;;3.80;2.72;;;7.80;99.90;;;;;;5039805;28;20048;-61
2021/12/10 01:51:05;;;;;;;6.95;3.22;;;7.80;99.90;;;;;;5042857;28;20053;-61
2021/12/10 01:53:33;;;;;;;5.30;2.92;;;7.70;99.90;;;;;;5044278;28;20104;-61
2021/12/10 01:56:06;;;;;;;2.50;2.00;;;7.70;99.90;;;;;;5023352;28;20106;-62
2021/12/10 01:58:33;;;;;;;4.28;2.97;;;7.70;99.90;;;;;;5055439;28;20077;-61
2021/12/10 02:01:05;;;;;;;4.93;2.30;;;7.60;99.90;;;;;;5049028;28;20114;-61
2021/12/10 02:03:32;;;;;;;3.25;2.30;;;7.60;99.90;;;;;;5041229;28;20068;-62
2021/12/10 02:05:58;;;;;;;4.10;2.70;;;7.60;99.90;;;;;;5041668;28;20044;-61
2021/12/10 02:08:25;;;;;;;5.60;3.00;;;7.50;99.90;;;;;;5046515;28;20059;-61
2021/12/10 02:10:52;;;;;;;4.85;2.15;;;7.50;99.90;;;;;;5023278;28;20054;-61
2021/12/10 02:13:19;;;;;;;4.10;2.75;;;7.50;99.90;;;;;;5054425;28;20125;-61
2021/12/10 02:15:46;;;;;;;4.22;2.08;;;7.40;99.90;;;;;;5040069;28;20053;-64
2021/12/10 02:18:13;;;;;;;7.93;2.08;;;7.40;99.90;;;;;;5059377;28;20913;-64
2021/12/10 02:20:58;;;;;;;6.85;2.70;;;7.40;99.90;;;;;;5021307;28;21053;-61
2021/12/10 02:23:24;;;;;;;3.95;1.88;;;7.40;99.90;;;;;;5030332;28;20081;-62
2021/12/10 02:25:51;;;;;;;4.22;1.58;;;7.40;99.90;;;;;;5035573;28;20072;-61
2021/12/10 02:28:18;;;;;;;2.42;1.90;;;7.40;99.90;;;;;;5048763;28;20103;-62
2021/12/10 02:30:45;;;;;;;3.63;1.70;;;7.30;99.90;;;;;;5039359;28;20084;-61
2021/12/10 02:33:12;;;;;;;1.27;0.93;;;7.40;99.90;;;;;;5046310;28;20051;-60
2021/12/10 02:35:39;;;;;;;7.35;2.03;;;7.30;99.90;;;;;;4686864;28;9999728;-61
2021/12/10 02:38:07;;;;;;;1.33;0.90;;;7.30;99.90;;;;;;5049394;28;20045;-60
2021/12/10 02:40:34;;;;;;;1.10;0.93;;;7.30;99.90;;;;;;5040444;28;20115;-61
2021/12/10 02:43:03;;;;;;;2.75;1.30;;;7.40;99.90;;;;;;5046403;28;20426;-61
2021/12/10 02:45:30;;;;;;;4.28;1.45;;;7.20;99.90;;;;;;5041913;28;20546;-61
2021/12/10 02:47:57;;;;;;;2.47;0.90;;;7.20;99.90;;;;;;5047297;28;20508;-61
2021/12/10 02:50:25;;;;;;;3.22;1.52;;;7.10;99.90;;;;;;5043211;28;20079;-62
2021/12/10 02:52:52;;;;;;;2.08;0.90;;;7.10;99.90;;;;;;5039534;28;20095;-62
2021/12/10 02:55:20;;;;;;;3.00;1.20;;;7.10;99.90;;;;;;5048079;28;20140;-61
2021/12/10 02:57:49;;;;;;;1.48;0.93;;;7.10;99.90;;;;;;5043105;28;20040;-61
2021/12/10 03:00:18;;;;;;;3.83;0.88;;;7.10;99.90;;;;;;5042505;28;20525;-61
2021/12/10 03:02:45;;;;;;;6.10;0.80;;;7.10;99.90;;;;;;5040761;28;20048;-64
2021/12/10 03:05:12;;;;;;;2.05;1.20;;;7.10;99.90;;;;;;5045506;28;20048;-61
2021/12/10 03:07:40;;;;;;;2.72;1.05;;;7.00;99.90;;;;;;5036979;28;20083;-61
2021/12/10 03:10:09;;;;;;;3.45;1.13;;;7.00;99.90;;;;;;5047886;28;20479;-60
2021/12/10 03:12:36;;;;;;;3.15;0.85;;;7.00;99.90;;;;;;5033462;28;20488;-60
2021/12/10 03:15:04;;;;;;;3.35;1.23;;;7.00;99.90;;;;;;5045184;28;20325;-60
2021/12/10 03:17:31;;;;;;;4.13;1.33;;;6.90;99.90;;;;;;5019794;28;20045;-60
2021/12/10 03:19:59;;;;;;;1.50;0.80;;;6.90;99.90;;;;;;5033812;28;20496;-60
2021/12/10 03:22:26;;;;;;;4.47;1.20;;;6.90;99.90;;;;;;5027575;28;20057;-61
2021/12/10 03:24:53;;;;;;;4.13;1.90;;;6.90;99.90;;;;;;5040488;28;20146;-61
2021/12/10 03:27:21;;;;;;;6.97;1.02;;;6.80;99.90;;;;;;5044245;28;20046;-60
2021/12/10 03:29:47;;;;;;;6.30;1.23;;;6.80;99.70;;;;;;5046780;28;20048;-60
2021/12/10 03:32:17;;;;;;;8.82;2.38;;;6.70;99.70;;;;;;5041723;28;20073;-60
2021/12/10 03:34:44;;;;;;;12.38;3.28;;;6.70;99.90;;;;;;5042675;28;20040;-61
2021/12/10 03:37:11;;;;;;;4.85;1.40;;;6.70;99.40;;;;;;5044298;28;20045;-60
2021/12/10 03:39:38;;;;;;;3.25;0.95;;;6.70;99.90;;;;;;5040169;28;20075;-61
2021/12/10 03:42:05;;;;;;;8.13;1.83;;;6.70;99.80;;;;;;5038845;28;20076;-61
2021/12/10 03:44:32;;;;;;;5.35;2.17;;;6.70;99.90;;;;;;5049426;28;20068;-61
2021/12/10 03:46:59;;;;;;;4.60;1.67;;;6.70;99.90;;;;;;5040144;28;20049;-60
2021/12/10 03:49:27;;;;;;;5.07;1.35;;;6.60;99.90;;;;;;5019652;28;20458;-61
2021/12/10 03:51:53;;;;;;;10.18;1.63;;;6.60;99.40;;;;;;5031940;28;20565;-61
2021/12/10 03:54:20;;;;;;;18.48;1.80;;;6.60;99.30;;;;;;5043638;28;20518;-60
2021/12/10 03:56:48;;;;;;;12.32;2.20;;;6.50;99.30;;;;;;5061173;28;20495;-60
2021/12/10 03:59:16;;;;;;;4.20;3.05;;;6.50;99.80;;;;;;5041247;28;20045;-60
2021/12/10 04:01:44;;;;;;;9.93;1.50;;;6.80;99.40;;;;;;5026421;28;20101;-61
2021/12/10 04:04:19;;;;;;;18.80;3.10;;;6.50;99.40;;;;;;5049381;28;20424;-60
2021/12/10 04:06:46;;;;;;;10.95;2.55;;;6.40;99.30;;;;;;5055609;28;20519;-61
2021/12/10 04:09:13;;;;;;;12.25;1.80;;;6.40;99.30;;;;;;5044995;28;20102;-61
2021/12/10 04:11:40;;;;;;;9.88;1.45;;;6.40;99.30;;;;;;5060331;28;20500;-60
2021/12/10 04:14:07;;;;;;;16.38;4.50;;;6.40;98.90;;;;;;5046818;28;20489;-60
2021/12/10 04:16:33;;;;;;;12.32;2.92;;;6.40;99.40;;;;;;5051121;28;20069;-61
2021/12/10 04:19:01;;;;;;;17.60;2.20;;;6.40;99.50;;;;;;5043291;28;20566;-60
2021/12/10 04:21:28;;;;;;;11.73;2.05;;;6.40;99.40;;;;;;5034812;28;20091;-60
2021/12/10 04:23:55;;;;;;;8.82;1.65;;;6.40;99.20;;;;;;5048270;28;20049;-60
2021/12/10 04:26:24;;;;;;;14.32;3.75;;;6.40;99.30;;;;;;5050835;28;20064;-60
2021/12/10 04:28:52;;;;;;;12.48;2.55;;;6.40;99.20;;;;;;5037473;28;20049;-60
2021/12/10 04:31:19;;;;;;;7.63;1.63;;;6.40;98.70;;;;;;5048754;28;20135;-60
2021/12/10 04:33:45;;;;;;;12.77;2.05;;;6.40;98.80;;;;;;5051084;28;20049;-62
2021/12/10 04:36:12;;;;;;;32.97;5.28;;;6.30;98.50;;;;;;5048180;28;20094;-61
2021/12/10 04:38:39;;;;;;;17.40;2.15;;;6.30;98.30;;;;;;5035546;28;20496;-62
2021/12/10 04:41:08;;;;;;;21.55;3.67;;;6.30;98.30;;;;;;5044700;28;20543;-61
2021/12/10 04:43:36;;;;;;;16.08;2.67;;;6.30;97.70;;;;;;5051294;28;20064;-61
2021/12/10 04:46:03;;;;;;;21.55;2.40;;;6.30;97.90;;;;;;5042596;28;20110;-62
2021/12/10 04:48:30;;;;;;;13.82;1.95;;;6.30;98.10;;;;;;5051465;28;20045;-62
2021/12/10 04:50:58;;;;;;;18.08;2.50;;;6.20;98.70;;;;;;5041175;28;20076;-62
2021/12/10 04:53:24;;;;;;;17.20;4.15;;;6.30;98.20;;;;;;5051987;28;20133;-61
2021/12/10 04:55:51;;;;;;;12.30;2.67;;;6.20;97.90;;;;;;5017704;28;20413;-62
2021/12/10 04:58:18;;;;;;;18.85;3.33;;;6.30;97.40;;;;;;5048789;28;20049;-62
2021/12/10 05:00:47;;;;;;;23.60;2.13;;;6.30;97.70;;;;;;5049027;28;20041;-62
2021/12/10 05:03:15;;;;;;;17.05;2.42;;;6.30;97.40;;;;;;5037293;28;20076;-62
2021/12/10 05:05:42;;;;;;;23.42;4.40;;;6.30;97.00;;;;;;5041625;28;20385;-62
2021/12/10 05:08:09;;;;;;;16.75;2.92;;;6.30;97.70;;;;;;5040066;28;20076;-61
2021/12/10 05:10:36;;;;;;;10.35;1.90;;;6.20;97.20;;;;;;5051991;28;20037;-61
2021/12/10 05:13:03;;;;;;;15.15;2.90;;;6.20;97.50;;;;;;5041191;28;20075;-62
2021/12/10 05:15:32;;;;;;;14.25;2.50;;;6.30;97.30;;;;;;5043713;28;20041;-60
2021/12/10 05:17:58;;;;;;;15.63;2.50;;;6.20;97.00;;;;;;5044426;28;20068;-60
2021/12/10 05:20:32;;;;;;;13.23;2.08;;;6.20;97.00;;;;;;5034213;28;20078;-60
2021/12/10 05:22:58;;;;;;;9.43;1.87;;;6.20;97.00;;;;;;5044408;28;20056;-61
2021/12/10 05:25:26;;;;;;;7.30;2.13;;;6.20;96.20;;;;;;5012821;28;20056;-61
2021/12/10 05:27:53;;;;;;;18.35;3.13;;;6.20;96.50;;;;;;5025879;28;20123;-61
2021/12/10 05:30:22;;;;;;;15.13;2.38;;;6.10;96.90;;;;;;5057925;28;20073;-61
2021/12/10 05:32:49;;;;;;;16.00;2.67;;;6.10;96.70;;;;;;5038976;28;20093;-61
2021/12/10 05:35:16;;;;;;;9.75;1.70;;;6.10;96.10;;;;;;5056707;28;20049;-61
2021/12/10 05:37:43;;;;;;;13.50;3.10;;;6.10;96.30;;;;;;5040512;28;20122;-61
2021/12/10 05:40:12;;;;;;;14.88;2.08;;;6.10;95.90;;;;;;5052312;28;20068;-61
2021/12/10 05:42:40;;;;;;;10.40;1.80;;;6.10;95.40;;;;;;5034661;28;20099;-61
2021/12/10 05:45:08;;;;;;;6.40;1.60;;;6.10;95.50;;;;;;5042301;28;20057;-60
2021/12/10 05:47:34;;;;;;;7.20;1.75;;;6.10;95.30;;;;;;5036933;28;20580;-61
2021/12/10 05:50:02;;;;;;;8.85;1.65;;;6.00;94.60;;;;;;5052270;28;20123;-61
2021/12/10 05:52:28;;;;;;;11.02;2.20;;;6.00;94.50;;;;;;5040859;28;20110;-60
2021/12/10 05:54:55;;;;;;;7.65;1.48;;;6.00;94.90;;;;;;5045739;28;20095;-61
2021/12/10 05:57:22;;;;;;;9.45;2.47;;;6.00;94.30;;;;;;5040570;28;20131;-61
2021/12/10 05:59:49;;;;;;;3.83;1.15;;;6.00;94.80;;;;;;5045847;28;20694;-60
2021/12/10 06:02:16;;;;;;;5.72;1.63;;;6.00;93.40;;;;;;5053611;28;20503;-61
2021/12/10 06:04:43;;;;;;;17.75;2.45;;;6.10;94.30;;;;;;5043381;28;20055;-62
2021/12/10 06:07:10;;;;;;;10.50;1.85;;;6.00;93.90;;;;;;5053704;28;20048;-61
2021/12/10 06:09:36;;;;;;;11.15;3.63;;;6.00;94.00;;;;;;5046063;28;20120;-61
2021/12/10 06:12:04;;;;;;;18.27;2.22;;;5.90;94.20;;;;;;5051902;28;20099;-61
2021/12/10 06:14:30;;;;;;;5.03;2.03;;;5.90;94.20;;;;;;5045241;28;20045;-61
2021/12/10 06:16:57;;;;;;;11.27;3.45;;;6.00;93.70;;;;;;5037284;28;20087;-60
2021/12/10 06:19:24;;;;;;;6.95;1.95;;;6.00;93.90;;;;;;5041608;28;20068;-61
2021/12/10 06:21:51;;;;;;;9.93;2.35;;;5.90;93.80;;;;;;5059178;28;20045;-61
2021/12/10 06:24:18;;;;;;;14.43;4.47;;;5.90;93.70;;;;;;5040443;28;20103;-61
2021/12/10 06:26:45;;;;;;;11.98;1.77;;;5.90;94.30;;;;;;5048617;28;20660;-61
2021/12/10 06:29:12;;;;;;;16.42;2.15;;;5.90;93.90;;;;;;5042737;28;20041;-61
2021/12/10 06:31:39;;;;;;;7.03;1.60;;;5.80;94.40;;;;;;5051952;28;20083;-61
2021/12/10 06:34:09;;;;;;;9.60;1.40;;;5.80;94.30;;;;;;5045806;28;20523;-61
2021/12/10 06:36:36;;;;;;;12.98;1.90;;;5.80;94.20;;;;;;5039981;28;20073;-59
2021/12/10 06:39:04;;;;;;;8.27;1.63;;;5.80;93.30;;;;;;5043329;28;20407;-60
2021/12/10 06:41:31;;;;;;;15.35;2.13;;;5.80;94.10;;;;;;5041802;28;20057;-60
2021/12/10 06:43:58;;;;;;;14.85;2.28;;;5.70;93.70;;;;;;5036586;28;20046;-60
2021/12/10 06:46:25;;;;;;;12.50;1.52;;;5.70;94.30;;;;;;5043154;28;20053;-60
2021/12/10 06:48:53;;;;;;;9.82;1.67;;;5.70;94.20;;;;;;5018965;28;20041;-60
2021/12/10 06:51:20;;;;;;;7.35;1.60;;;5.60;94.00;;;;;;5044120;28;20041;-60
2021/12/10 06:53:47;;;;;;;6.75;2.10;;;5.60;94.40;;;;;;5033785;28;20076;-60
2021/12/10 06:56:14;;;;;;;8.32;1.45;;;5.60;94.20;;;;;;5043443;28;20103;-60
2021/12/10 06:58:42;;;;;;;11.20;1.67;;;5.60;93.90;;;;;;5048907;28;20622;-61
2021/12/10 07:01:13;;;;;;;7.63;2.13;;;5.60;94.10;;;;;;5042906;28;20041;-60
2021/12/10 07:03:41;;;;;;;7.63;1.70;;;5.50;93.60;;;;;;5052122;28;20049;-60
2021/12/10 07:06:08;;;;;;;9.43;1.67;;;5.50;93.90;;;;;;5040659;28;20072;-61
2021/12/10 07:08:36;;;;;;;10.48;2.13;;;5.50;94.20;;;;;;5041629;28;20111;-60
2021/12/10 07:11:04;;;;;;;10.27;3.58;;;5.50;93.90;;;;;;5037886;28;20045;-60
2021/12/10 07:13:32;;;;;;;5.35;1.45;;;5.50;93.80;;;;;;5033783;28;20095;-60
2021/12/10 07:15:59;;;;;;;9.13;1.33;;;5.50;94.20;;;;;;5039276;28;20052;-61
2021/12/10 07:18:26;;;;;;;5.03;1.10;;;5.50;94.20;;;;;;5047630;28;20617;-61
2021/12/10 07:20:53;;;;;;;4.43;1.65;;;5.40;93.70;;;;;;5045569;28;20044;-61
2021/12/10 07:23:20;;;;;;;10.98;2.70;;;5.40;93.60;;;;;;5037674;28;20045;-60
2021/12/10 07:25:48;;;;;;;6.68;1.73;;;5.40;94.10;;;;;;5033939;28;20163;-61
2021/12/10 07:28:14;;;;;;;15.23;2.28;;;5.40;94.00;;;;;;5050123;28;20080;-60
2021/12/10 07:30:41;;;;;;;9.10;1.70;;;5.30;93.80;;;;;;5039349;28;20429;-59
2021/12/10 07:33:08;;;;;;;12.73;1.77;;;5.50;93.20;;;;;;5041211;28;20053;-60
2021/12/10 07:35:35;;;;;;;8.82;1.80;;;5.30;93.80;;;;;;5043410;28;20110;-62
2021/12/10 07:38:03;;;;;;;6.35;2.30;;;5.30;94.20;;;;;;5041419;28;20080;-61
2021/12/10 07:40:31;;;;;;;5.03;2.45;;;5.30;93.30;;;;;;5018771;28;20049;-60
2021/12/10 07:42:58;;;;;;;3.90;2.10;;;5.30;93.70;;;;;;5042785;28;20052;-59
2021/12/10 07:45:25;;;;;;;8.70;2.08;;;5.30;93.60;;;;;;5053520;28;20197;-59
2021/12/10 07:47:53;;;;;;;7.28;1.45;;;5.30;94.00;;;;;;5040044;28;20498;-59
2021/12/10 07:50:24;;;;;;;9.02;1.63;;;5.20;94.00;;;;;;5037672;28;20041;-61
2021/12/10 07:52:55;;;;;;;13.75;1.80;;;5.20;94.00;;;;;;5021225;28;20067;-59
2021/12/10 07:55:27;;;;;;;2.58;0.70;;;5.20;94.00;;;;;;5048949;28;20452;-59
2021/12/10 07:57:54;;;;;;;9.35;1.60;;;5.20;93.20;;;;;;5037768;28;20041;-59
2021/12/10 08:00:22;;;;;;;9.57;1.92;;;5.20;93.60;;;;;;5028784;28;20079;-60
2021/12/10 08:02:50;;;;;;;13.50;2.20;;;5.10;93.50;;;;;;5036548;28;20080;-60
2021/12/10 08:05:17;;;;;;;6.72;1.50;;;5.10;93.70;;;;;;5052667;28;20045;-61
2021/12/10 08:11:25;;;;;;;9.30;1.33;;;5.10;93.40;;;;;;5052086;28;20112;-60
2021/12/10 08:13:52;;;;;;;6.38;1.92;;;5.10;93.60;;;;;;5039845;28;20041;-64
2021/12/10 08:17:00;;;;;;;11.32;1.95;;;5.00;93.70;;;;;;5055483;28;20037;-60
2021/12/10 08:19:51;;;;;;;14.23;2.65;;;5.10;93.50;;;;;;5068212;28;20107;-60
2021/12/10 08:22:19;;;;;;;15.85;2.30;;;5.00;94.00;;;;;;5057346;28;20076;-60
2021/12/10 08:38:05;;;;;;;12.57;2.10;;;4.90;93.90;;;;;;5050865;28;20521;-61
2021/12/10 08:53:14;;;;;;;12.68;1.50;;;4.90;94.20;;;;;;5057273;28;20048;-60
2021/12/10 08:56:10;;;;;;;11.00;1.75;;;4.90;94.10;;;;;;5066362;28;20045;-60
2021/12/10 08:58:37;;;;;;;7.60;1.48;;;4.90;94.30;;;;;;5043379;28;20053;-61
2021/12/10 09:01:06;;;;;;;7.95;2.92;;;5.00;94.00;;;;;;5020453;28;20056;-61
2021/12/10 09:03:42;;;;;;;15.05;1.70;;;5.00;93.90;;;;;;5035316;28;20424;-61
2021/12/10 09:06:10;;;;;;;8.73;1.67;;;5.00;94.10;;;;;;5030991;28;20052;-61
2021/12/10 09:08:37;;;;;;;5.55;1.85;;;5.00;94.20;;;;;;5052093;28;20587;-62
2021/12/10 09:11:05;;;;;;;6.43;1.92;;;5.00;94.30;;;;;;5042093;28;20510;-61
2021/12/10 09:13:32;;;;;;;7.10;1.30;;;5.10;94.10;;;;;;5038609;28;20550;-61
2021/12/10 09:16:01;;;;;;;7.32;1.63;;;5.10;94.10;;;;;;5041460;28;20098;-61
2021/12/10 09:18:28;;;;;;;10.25;1.98;;;5.10;94.10;;;;;;5039847;28;20045;-60
2021/12/10 09:20:57;;;;;;;11.60;1.88;;;5.10;94.20;;;;;;5036541;28;20041;-60
2021/12/10 09:23:25;;;;;;;15.40;1.35;;;5.10;94.10;;;;;;5003867;28;20500;-60
2021/12/10 09:25:55;;;;;;;6.90;1.73;;;5.10;93.70;;;;;;5042046;28;20073;-60
2021/12/10 09:28:23;;;;;;;8.20;1.52;;;5.10;93.70;;;;;;5035843;28;20103;-61
2021/12/10 09:30:51;;;;;;;9.90;2.55;;;5.10;94.10;;;;;;5023699;28;20045;-60
2021/12/10 09:33:18;;;;;;;3.47;1.75;;;5.10;94.20;;;;;;5038794;28;20106;-60
2021/12/10 09:35:45;;;;;;;9.20;1.30;;;5.20;94.00;;;;;;5044372;28;20082;-60
2021/12/10 09:38:13;;;;;;;11.27;1.73;;;5.20;94.10;;;;;;5053816;28;20541;-60
2021/12/10 09:40:41;;;;;;;8.02;1.83;;;5.20;93.70;;;;;;5044209;28;20045;-60
2021/12/10 09:43:09;;;;;;;5.53;1.52;;;5.20;94.20;;;;;;5054212;28;20135;-60
2021/12/10 09:45:37;;;;;;;10.00;1.90;;;5.20;93.30;;;;;;5037457;28;20049;-59
2021/12/10 09:48:06;;;;;;;13.50;2.60;;;5.20;94.00;;;;;;5054497;28;20538;-60
2021/12/10 09:50:37;;;;;;;14.32;4.00;;;5.30;94.30;;;;;;5023134;28;20045;-60
2021/12/10 09:53:05;;;;;;;8.75;2.03;;;5.20;93.40;;;;;;5053701;28;20056;-59
2021/12/10 09:55:31;;;;;;;9.93;2.08;;;5.20;93.20;;;;;;5045585;28;20076;-59
2021/12/10 09:57:58;;;;;;;9.32;1.90;;;5.30;93.50;;;;;;5042082;28;20467;-60
2021/12/10 10:00:30;;;;;;;13.00;2.65;;;5.30;93.20;;;;;;5046387;28;20523;-60
2021/12/10 10:02:57;;;;;;;5.38;1.42;;;5.30;93.20;;;;;;5045166;28;20132;-60
2021/12/10 10:05:27;;;;;;;15.70;1.80;;;5.30;93.00;;;;;;5044376;28;20434;-59
2021/12/10 10:07:56;;;;;;;7.07;2.05;;;5.30;93.50;;;;;;5046294;28;20069;-60
2021/12/10 10:10:23;;;;;;;4.80;1.30;;;5.30;92.90;;;;;;5039143;28;20461;-61
2021/12/10 10:12:52;;;;;;;5.22;1.67;;;5.30;93.00;;;;;;5036062;28;20053;-60
2021/12/10 10:15:26;;;;;;;8.65;1.63;;;5.30;92.90;;;;;;5038171;28;20053;-60
2021/12/10 10:17:54;;;;;;;8.18;1.13;;;5.40;93.20;;;;;;5039626;28;20076;-59
2021/12/10 10:20:21;;;;;;;5.75;1.35;;;5.40;93.00;;;;;;5027466;28;20057;-59
2021/12/10 10:22:48;;;;;;;13.63;2.15;;;5.40;92.50;;;;;;5041052;28;20053;-59
2021/12/10 10:25:16;;;;;;;7.82;1.70;;;5.40;93.10;;;;;;5054272;28;20052;-59
2021/12/10 10:27:43;;;;;;;16.15;1.88;;;5.50;92.70;;;;;;5044271;28;20462;-59
2021/12/10 10:30:25;;;;;;;5.45;1.13;;;5.60;93.20;;;;;;5045596;28;20056;-60
2021/12/10 10:32:53;;;;;;;11.45;1.58;;;5.70;92.50;;;;;;5041553;28;20515;-59
2021/12/10 10:35:31;;;;;;;5.07;1.35;;;5.70;91.80;;;;;;5029555;28;20045;-60
2021/12/10 10:37:58;;;;;;;9.13;1.35;;;5.70;92.10;;;;;;5032374;28;20048;-60
2021/12/10 10:40:29;;;;;;;5.72;2.00;;;5.80;92.60;;;;;;5038914;28;20164;-60
2021/12/10 10:42:56;;;;;;;9.85;1.52;;;5.80;92.10;;;;;;5043858;28;20087;-59
2021/12/10 10:45:25;;;;;;;9.38;2.50;;;5.80;91.80;;;;;;5050176;28;20037;-59
2021/12/10 10:47:52;;;;;;;8.38;2.15;;;5.80;91.90;;;;;;5025463;28;20053;-59
2021/12/10 10:50:34;;;;;;;14.27;3.17;;;5.90;91.60;;;;;;5039301;28;20092;-60
2021/12/10 10:53:07;;;;;;;8.63;1.33;;;6.00;91.60;;;;;;5044605;28;20049;-59
2021/12/10 10:55:37;;;;;;;6.60;1.48;;;6.00;91.70;;;;;;5039966;28;20076;-59
2021/12/10 10:58:05;;;;;;;4.47;0.95;;;6.10;91.70;;;;;;5036260;28;20392;-60
2021/12/10 11:00:51;;;;;;;5.47;0.95;;;6.10;90.90;;;;;;5051510;28;20079;-60
2021/12/10 11:03:52;;;;;;;7.32;1.70;;;6.10;90.90;;;;;;5031671;28;20406;-59
2021/12/10 11:06:24;;;;;;;6.82;1.63;;;6.10;91.50;;;;;;5036726;28;20153;-59
2021/12/10 11:08:52;;;;;;;5.25;1.67;;;6.10;90.90;;;;;;5041803;28;20457;-60
2021/12/10 11:11:28;;;;;;;8.13;1.20;;;6.20;90.90;;;;;;5053982;28;20053;-60
2021/12/10 11:14:37;;;;;;;14.38;1.83;;;6.30;91.10;;;;;;5039034;28;20076;-59
2021/12/10 11:17:15;;;;;;;7.32;1.88;;;6.30;91.40;;;;;;4973352;28;20101;-60
2021/12/10 11:20:01;;;;;;;16.60;2.65;;;6.30;90.10;;;;;;4950701;28;20417;-59
2021/12/10 11:22:28;;;;;;;5.90;1.15;;;6.30;91.40;;;;;;5027045;28;20049;-60
2021/12/10 11:25:00;;;;;;;16.80;2.20;;;6.40;90.50;;;;;;5033059;28;20068;-61
2021/12/10 11:27:38;;;;;;;5.75;1.60;;;6.40;90.90;;;;;;5038019;28;20055;-60
2021/12/10 11:30:10;;;;;;;11.75;1.90;;;6.50;90.30;;;;;;5036680;28;20038;-59
2021/12/10 11:32:51;;;;;;;14.77;1.80;;;6.50;90.40;;;;;;5053986;28;20045;-60
2021/12/10 11:35:22;;;;;;;13.63;3.28;;;6.50;90.10;;;;;;5043980;28;20098;-59
2021/12/10 11:38:00;;;;;;;9.90;1.80;;;6.50;90.30;;;;;;5054552;28;20087;-60
2021/12/10 11:40:34;;;;;;;15.70;3.72;;;6.60;89.60;;;;;;5042995;28;20041;-59
2021/12/10 11:46:48;;;;;;;;;;;;;;;;;;;;;
2021/12/10 11:49:17;;;;;;;7.68;1.23;;;6.70;89.60;;;;;;5035433;28;20492;-59
2021/12/10 11:51:48;;;;;;;12.60;2.30;;;6.70;88.70;;;;;;5036894;28;20049;-62
2021/12/10 11:54:30;;;;;;;16.15;1.60;;;6.70;89.60;;;;;;5034004;28;20089;-60
2021/12/10 11:57:14;;;;;;;15.05;2.83;;;6.70;88.90;;;;;;5049594;28;20258;-60
2021/12/10 11:59:42;;;;;;;13.73;2.63;;;6.60;88.60;;;;;;5036218;28;20088;-59
2021/12/10 12:02:14;;;;;;;10.75;2.17;;;6.70;88.60;;;;;;5052605;28;20411;-59
2021/12/10 12:04:51;;;;;;;4.90;1.23;;;6.80;90.00;;;;;;5023341;28;20041;-59
2021/12/10 12:07:40;;;;;;;9.23;1.50;;;6.80;88.30;;;;;;5057308;28;20053;-59
2021/12/10 12:10:28;;;;;;;11.07;1.75;;;6.80;88.70;;;;;;5040924;28;20052;-58
2021/12/10 12:13:23;;;;;;;8.57;2.83;;;6.80;88.60;;;;;;5059285;28;20467;-59
2021/12/10 12:16:01;;;;;;;8.57;1.50;;;6.80;88.30;;;;;;5036260;28;20037;-59
2021/12/10 12:18:30;;;;;;;16.83;2.45;;;6.80;88.10;;;;;;5053923;28;20131;-59
2021/12/10 12:27:08;;;;;;;4.25;1.52;;;7.00;88.10;;;;;;5045410;28;20324;-59
2021/12/10 12:29:56;;;;;;;7.45;1.63;;;7.10;88.50;;;;;;5027734;28;20133;-59
2021/12/10 12:32:27;;;;;;;11.13;1.95;;;7.00;87.20;;;;;;5024274;28;20043;-57
2021/12/10 12:34:55;;;;;;;6.65;1.40;;;6.90;87.50;;;;;;5019227;28;20041;-59
2021/12/10 12:37:22;;;;;;;8.30;1.90;;;6.90;88.40;;;;;;5046335;28;20106;-60
2021/12/10 12:40:10;;;;;;;6.75;1.10;;;6.90;88.90;;;;;;5040538;28;20080;-59
2021/12/10 12:42:45;;;;;;;11.23;1.60;;;6.90;86.60;;;;;;5042611;28;20547;-58
2021/12/10 12:45:24;;;;;;;9.20;2.35;;;6.90;87.80;;;;;;5039753;28;20120;-58
2021/12/10 12:48:11;;;;;;;8.77;1.48;;;7.00;87.50;;;;;;5038514;28;20125;-59
2021/12/10 12:50:46;;;;;;;12.80;1.73;;;7.00;87.70;;;;;;5038604;28;20454;-58
2021/12/10 12:53:17;;;;;;;11.73;2.17;;;7.00;87.70;;;;;;5047621;28;20423;-59
2021/12/10 12:56:03;;;;;;;6.00;1.60;;;7.00;88.00;;;;;;5048115;28;20388;-58
2021/12/10 12:59:00;;;;;;;6.90;1.35;;;6.90;87.90;;;;;;5052970;28;20402;-59
2021/12/10 13:01:42;;;;;;;6.13;1.00;;;6.90;87.40;;;;;;5041538;28;20054;-58
2021/12/10 13:04:12;;;;;;;16.33;1.60;;;6.90;86.60;;;;;;5052757;28;20083;-59
2021/12/10 13:07:19;;;;;;;8.60;1.40;;;6.80;86.60;;;;;;5038620;28;20045;-59
2021/12/10 13:09:53;;;;;;;7.05;1.33;;;6.80;86.20;;;;;;5025797;28;20041;-59
2021/12/10 13:15:03;;;;;;;6.68;1.75;;;6.80;86.90;;;;;;5053840;28;20130;-59
2021/12/10 13:17:33;;;;;;;6.68;1.95;;;6.90;87.20;;;;;;5045363;28;20050;-59
2021/12/10 13:20:03;;;;;;;4.00;1.20;;;6.80;86.60;;;;;;5047111;28;20041;-59
2021/12/10 13:22:31;;;;;;;6.15;1.77;;;7.00;86.70;;;;;;5024921;28;20049;-59
2021/12/10 13:25:02;;;;;;;5.72;2.65;;;6.90;87.80;;;;;;5049523;28;20130;-60
2021/12/10 13:27:30;;;;;;;9.48;1.48;;;7.00;86.10;;;;;;5041521;28;20440;-59
2021/12/10 13:30:20;;;;;;;8.27;1.52;;;7.00;87.20;;;;;;5050487;28;20144;-59
2021/12/10 13:32:48;;;;;;;10.15;1.95;;;7.10;86.70;;;;;;5048573;28;20069;-59
2021/12/10 13:35:16;;;;;;;3.10;1.05;;;7.10;86.60;;;;;;5049172;28;20049;-59
2021/12/10 13:37:43;;;;;;;2.45;1.20;;;7.10;85.90;;;;;;5052326;28;20500;-59
2021/12/10 13:40:12;;;;;;;5.65;1.05;;;7.00;84.50;;;;;;5046617;28;20057;-59
2021/12/10 13:42:39;;;;;;;13.10;1.42;;;7.00;86.10;;;;;;5051520;28;20045;-59
2021/12/10 13:45:07;;;;;;;4.95;1.15;;;7.00;86.60;;;;;;5046504;28;20049;-59
2021/12/10 13:47:40;;;;;;;7.60;2.88;;;6.90;85.60;;;;;;5052017;28;20106;-59
2021/12/10 13:50:08;;;;;;;4.68;2.10;;;7.00;86.60;;;;;;5019509;28;20052;-59
2021/12/10 13:52:48;;;;;;;12.13;2.80;;;7.00;88.20;;;;;;5051624;28;20052;-59
2021/12/10 13:55:19;;;;;;;9.88;1.70;;;7.00;86.90;;;;;;5047865;28;20076;-60
2021/12/10 13:58:33;;;;;;;10.23;1.92;;;7.00;86.30;;;;;;5051591;28;20037;-59
2021/12/10 14:01:06;;;;;;;8.40;1.25;;;7.00;86.50;;;;;;5039028;28;20483;-59
2021/12/10 14:03:53;;;;;;;17.60;2.80;;;7.00;86.00;;;;;;5049692;28;20056;-58
2021/12/10 14:06:40;;;;;;;4.60;1.13;;;6.70;85.90;;;;;;5042814;28;20341;-58